sensor_id;sensor_type;location;lat;lon;timestamp;pressure;altitude;pressure_sealevel;temperature;humidity
75460;BME280;64039;53.060;9.342;2023-08-06T00:01:39;100356.13;;;13.87;100.00
75460;BME280;64039;53.060;9.342;2023-08-06T00:04:04;100364.84;;;13.82;100.00
75460;BME280;64039;53.060;9.342;2023-08-06T00:06:30;100362.25;;;13.84;100.00
75460;BME280;64039;53.060;9.342;2023-08-06T00:08:55;100356.13;;;13.87;100.00
75460;BME280;64039;53.060;9.342;2023-08-06T00:11:21;100351.78;;;13.90;100.00
75460;BME280;64039;53.060;9.342;2023-08-06T00:13:46;100354.38;;;13.90;100.00
75460;BME280;64039;53.060;9.342;2023-08-06T00:16:12;100359.63;;;13.84;100.00
75460;BME280;64039;53.060;9.342;2023-08-06T00:18:39;100357.88;;;13.92;100.00
75460;BME280;64039;53.060;9.342;2023-08-06T00:21:04;100350.00;;;14.00;100.00
75460;BME280;64039;53.060;9.342;2023-08-06T00:23:30;100357.88;;;13.94;100.00
75460;BME280;64039;53.060;9.342;2023-08-06T00:25:55;100353.50;;;13.88;100.00
75460;BME280;64039;53.060;9.342;2023-08-06T00:28:21;100350.88;;;13.94;100.00
75460;BME280;64039;53.060;9.342;2023-08-06T00:30:51;100345.66;;;13.97;100.00
75460;BME280;64039;53.060;9.342;2023-08-06T00:33:17;100343.94;;;13.89;100.00
75460;BME280;64039;53.060;9.342;2023-08-06T00:35:42;100352.63;;;13.95;100.00
75460;BME280;64039;53.060;9.342;2023-08-06T00:38:08;100346.53;;;13.87;100.00
75460;BME280;64039;53.060;9.342;2023-08-06T00:40:33;100350.91;;;13.93;100.00
75460;BME280;64039;53.060;9.342;2023-08-06T00:42:59;100345.66;;;13.88;100.00
75460;BME280;64039;53.060;9.342;2023-08-06T00:45:25;100344.78;;;13.98;100.00
75460;BME280;64039;53.060;9.342;2023-08-06T00:47:50;100335.19;;;13.88;100.00
75460;BME280;64039;53.060;9.342;2023-08-06T00:50:16;100336.94;;;13.86;100.00
75460;BME280;64039;53.060;9.342;2023-08-06T00:52:42;100335.19;;;13.83;100.00
75460;BME280;64039;53.060;9.342;2023-08-06T00:55:08;100333.47;;;13.81;100.00
75460;BME280;64039;53.060;9.342;2023-08-06T00:57:35;100331.72;;;13.67;100.00
75460;BME280;64039;53.060;9.342;2023-08-06T01:00:01;100326.47;;;13.81;100.00
75460;BME280;64039;53.060;9.342;2023-08-06T01:02:26;100322.97;;;13.73;100.00
75460;BME280;64039;53.060;9.342;2023-08-06T01:04:52;100316.91;;;13.76;100.00
75460;BME280;64039;53.060;9.342;2023-08-06T01:08:19;100309.94;;;13.79;100.00
75460;BME280;64039;53.060;9.342;2023-08-06T01:10:40;100313.41;;;13.84;100.00
75460;BME280;64039;53.060;9.342;2023-08-06T01:13:18;100318.63;;;13.88;100.00
75460;BME280;64039;53.060;9.342;2023-08-06T01:15:49;100320.38;;;13.96;100.00
75460;BME280;64039;53.060;9.342;2023-08-06T01:18:18;100312.53;;;13.84;100.00
75460;BME280;64039;53.060;9.342;2023-08-06T01:20:44;100308.16;;;13.69;100.00
75460;BME280;64039;53.060;9.342;2023-08-06T01:23:09;100305.56;;;13.69;100.00
75460;BME280;64039;53.060;9.342;2023-08-06T01:25:54;100295.94;;;13.70;100.00
75460;BME280;64039;53.060;9.342;2023-08-06T01:28:54;100288.13;;;13.62;100.00
75460;BME280;64039;53.060;9.342;2023-08-06T01:31:32;100288.13;;;13.52;100.00
75460;BME280;64039;53.060;9.342;2023-08-06T01:34:01;100288.13;;;13.51;100.00
75460;BME280;64039;53.060;9.342;2023-08-06T01:36:28;100287.25;;;13.55;100.00
75460;BME280;64039;53.060;9.342;2023-08-06T01:38:54;100287.22;;;13.47;100.00
75460;BME280;64039;53.060;9.342;2023-08-06T01:41:19;100293.34;;;13.52;100.00
75460;BME280;64039;53.060;9.342;2023-08-06T01:43:45;100286.38;;;13.58;100.00
75460;BME280;64039;53.060;9.342;2023-08-06T01:46:10;100289.00;;;13.65;100.00
75460;BME280;64039;53.060;9.342;2023-08-06T01:48:36;100280.25;;;13.65;100.00
75460;BME280;64039;53.060;9.342;2023-08-06T01:51:04;100281.13;;;13.67;100.00
75460;BME280;64039;53.060;9.342;2023-08-06T01:53:30;100269.81;;;13.62;100.00
75460;BME280;64039;53.060;9.342;2023-08-06T01:55:56;100271.53;;;13.47;100.00
75460;BME280;64039;53.060;9.342;2023-08-06T01:58:22;100268.94;;;13.52;100.00
75460;BME280;64039;53.060;9.342;2023-08-06T02:00:48;100268.06;;;13.51;100.00
75460;BME280;64039;53.060;9.342;2023-08-06T02:03:13;100271.56;;;13.63;100.00
75460;BME280;64039;53.060;9.342;2023-08-06T02:05:40;100273.28;;;13.58;100.00
75460;BME280;64039;53.060;9.342;2023-08-06T02:08:05;100267.19;;;13.59;100.00
75460;BME280;64039;53.060;9.342;2023-08-06T02:10:31;100261.09;;;13.58;100.00
75460;BME280;64039;53.060;9.342;2023-08-06T02:12:56;100266.31;;;13.66;100.00
75460;BME280;64039;53.060;9.342;2023-08-06T02:15:21;100268.94;;;13.66;100.00
75460;BME280;64039;53.060;9.342;2023-08-06T02:17:47;100264.56;;;13.59;100.00
75460;BME280;64039;53.060;9.342;2023-08-06T02:20:12;100262.84;;;13.51;100.00
75460;BME280;64039;53.060;9.342;2023-08-06T02:22:38;100254.06;;;13.35;100.00
75460;BME280;64039;53.060;9.342;2023-08-06T02:25:03;100250.63;;;13.40;100.00
75460;BME280;64039;53.060;9.342;2023-08-06T02:27:29;100250.59;;;13.32;100.00
75460;BME280;64039;53.060;9.342;2023-08-06T02:29:54;100252.34;;;13.20;100.00
75460;BME280;64039;53.060;9.342;2023-08-06T02:32:20;100246.22;;;13.15;100.00
75460;BME280;64039;53.060;9.342;2023-08-06T02:34:45;100243.63;;;13.18;100.00
75460;BME280;64039;53.060;9.342;2023-08-06T02:37:11;100243.59;;;13.15;100.00
75460;BME280;64039;53.060;9.342;2023-08-06T02:39:36;100247.09;;;13.11;100.00
75460;BME280;64039;53.060;9.342;2023-08-06T02:42:08;100242.75;;;13.09;100.00
75460;BME280;64039;53.060;9.342;2023-08-06T02:44:34;100243.59;;;13.06;100.00
75460;BME280;64039;53.060;9.342;2023-08-06T02:47:00;100238.38;;;13.03;100.00
75460;BME280;64039;53.060;9.342;2023-08-06T02:49:26;100241.00;;;13.12;100.00
75460;BME280;64039;53.060;9.342;2023-08-06T02:51:51;100246.22;;;13.04;100.00
75460;BME280;64039;53.060;9.342;2023-08-06T02:54:18;100246.22;;;13.12;100.00
75460;BME280;64039;53.060;9.342;2023-08-06T02:56:46;100241.03;;;13.37;100.00
75460;BME280;64039;53.060;9.342;2023-08-06T02:59:14;100233.19;;;13.49;100.00
75460;BME280;64039;53.060;9.342;2023-08-06T03:01:39;100231.47;;;13.55;100.00
75460;BME280;64039;53.060;9.342;2023-08-06T03:04:05;100228.84;;;13.58;100.00
75460;BME280;64039;53.060;9.342;2023-08-06T03:06:31;100227.09;;;13.50;100.00
75460;BME280;64039;53.060;9.342;2023-08-06T03:08:57;100224.47;;;13.38;100.00
75460;BME280;64039;53.060;9.342;2023-08-06T03:11:22;100217.47;;;13.35;100.00
75460;BME280;64039;53.060;9.342;2023-08-06T03:13:48;100218.34;;;13.33;100.00
75460;BME280;64039;53.060;9.342;2023-08-06T03:16:13;100208.78;;;13.32;100.00
75460;BME280;64039;53.060;9.342;2023-08-06T03:18:39;100207.94;;;13.42;100.00
75460;BME280;64039;53.060;9.342;2023-08-06T03:21:05;100204.44;;;13.52;100.00
75460;BME280;64039;53.060;9.342;2023-08-06T03:23:30;100207.06;;;13.56;100.00
75460;BME280;64039;53.060;9.342;2023-08-06T03:25:56;100202.69;;;13.56;100.00
75460;BME280;64039;53.060;9.342;2023-08-06T03:28:21;100201.81;;;13.60;100.00
75460;BME280;64039;53.060;9.342;2023-08-06T03:30:47;100200.94;;;13.61;100.00
75460;BME280;64039;53.060;9.342;2023-08-06T03:33:13;100191.38;;;13.54;100.00
75460;BME280;64039;53.060;9.342;2023-08-06T03:35:39;100193.09;;;13.52;100.00
75460;BME280;64039;53.060;9.342;2023-08-06T03:38:05;100194.84;;;13.53;100.00
75460;BME280;64039;53.060;9.342;2023-08-06T03:40:30;100186.13;;;13.70;100.00
75460;BME280;64039;53.060;9.342;2023-08-06T03:42:55;100187.00;;;13.67;100.00
75460;BME280;64039;53.060;9.342;2023-08-06T03:45:21;100188.72;;;13.65;100.00
75460;BME280;64039;53.060;9.342;2023-08-06T03:47:46;100191.34;;;13.77;100.00
75460;BME280;64039;53.060;9.342;2023-08-06T03:50:12;100188.69;;;13.83;100.00
75460;BME280;64039;53.060;9.342;2023-08-06T03:52:37;100181.75;;;13.73;100.00
75460;BME280;64039;53.060;9.342;2023-08-06T03:55:03;100182.63;;;13.78;100.00
75460;BME280;64039;53.060;9.342;2023-08-06T03:57:29;100187.00;;;13.67;100.00
75460;BME280;64039;53.060;9.342;2023-08-06T03:59:54;100193.09;;;13.69;100.00
75460;BME280;64039;53.060;9.342;2023-08-06T04:02:20;100184.38;;;13.75;100.00
75460;BME280;64039;53.060;9.342;2023-08-06T04:04:45;100181.75;;;13.68;100.00
75460;BME280;64039;53.060;9.342;2023-08-06T04:07:10;100168.69;;;13.72;100.00
75460;BME280;64039;53.060;9.342;2023-08-06T04:09:54;100176.53;;;13.58;100.00
75460;BME280;64039;53.060;9.342;2023-08-06T04:12:20;100177.41;;;13.64;100.00
75460;BME280;64039;53.060;9.342;2023-08-06T04:14:45;100169.56;;;13.71;100.00
75460;BME280;64039;53.060;9.342;2023-08-06T04:17:11;100171.31;;;13.61;100.00
75460;BME280;64039;53.060;9.342;2023-08-06T04:19:37;100173.03;;;13.65;100.00
75460;BME280;64039;53.060;9.342;2023-08-06T04:22:03;100168.66;;;13.73;100.00
75460;BME280;64039;53.060;9.342;2023-08-06T04:24:29;100174.81;;;13.63;100.00
75460;BME280;64039;53.060;9.342;2023-08-06T04:26:54;100174.81;;;13.63;100.00
75460;BME280;64039;53.060;9.342;2023-08-06T04:29:19;100168.69;;;13.58;100.00
75460;BME280;64039;53.060;9.342;2023-08-06T04:31:45;100167.81;;;13.73;100.00
75460;BME280;64039;53.060;9.342;2023-08-06T04:34:10;100166.03;;;13.81;100.00
75460;BME280;64039;53.060;9.342;2023-08-06T04:36:36;100164.31;;;13.71;100.00
75460;BME280;64039;53.060;9.342;2023-08-06T04:39:04;100161.69;;;13.78;100.00
75460;BME280;64039;53.060;9.342;2023-08-06T04:41:29;100164.31;;;13.83;100.00
75460;BME280;64039;53.060;9.342;2023-08-06T04:43:56;100166.03;;;13.90;100.00
75460;BME280;64039;53.060;9.342;2023-08-06T04:46:22;100168.63;;;13.87;100.00
75460;BME280;64039;53.060;9.342;2023-08-06T04:48:47;100175.56;;;13.99;100.00
75460;BME280;64039;53.060;9.342;2023-08-06T04:51:13;100181.69;;;14.04;100.00
75460;BME280;64039;53.060;9.342;2023-08-06T04:53:39;100185.13;;;14.15;100.00
75460;BME280;64039;53.060;9.342;2023-08-06T04:56:04;100175.56;;;14.04;100.00
75460;BME280;64039;53.060;9.342;2023-08-06T04:58:30;100182.53;;;14.05;100.00
75460;BME280;64039;53.060;9.342;2023-08-06T05:00:55;100186.91;;;14.06;100.00
75460;BME280;64039;53.060;9.342;2023-08-06T05:03:22;100186.06;;;13.97;100.00
75460;BME280;64039;53.060;9.342;2023-08-06T05:05:48;100190.41;;;13.98;100.00
75460;BME280;64039;53.060;9.342;2023-08-06T05:08:14;100193.00;;;14.09;100.00
75460;BME280;64039;53.060;9.342;2023-08-06T05:10:46;100187.78;;;14.00;100.00
75460;BME280;64039;53.060;9.342;2023-08-06T05:13:12;100183.41;;;14.04;100.00
75460;BME280;64039;53.060;9.342;2023-08-06T05:15:37;100186.03;;;14.07;100.00
75460;BME280;64039;53.060;9.342;2023-08-06T05:18:05;100190.41;;;14.02;100.00
75460;BME280;64039;53.060;9.342;2023-08-06T05:20:30;100189.53;;;14.06;100.00
75460;BME280;64039;53.060;9.342;2023-08-06T05:22:56;100195.59;;;14.12;100.00
75460;BME280;64039;53.060;9.342;2023-08-06T05:25:21;100192.97;;;14.11;100.00
75460;BME280;64039;53.060;9.342;2023-08-06T05:27:47;100194.75;;;14.06;100.00
75460;BME280;64039;53.060;9.342;2023-08-06T05:30:12;100190.34;;;14.23;100.00
75460;BME280;64039;53.060;9.342;2023-08-06T05:32:37;100201.66;;;14.27;100.00
75460;BME280;64039;53.060;9.342;2023-08-06T05:35:03;100201.66;;;14.30;100.00
75460;BME280;64039;53.060;9.342;2023-08-06T05:37:29;100196.41;;;14.28;100.00
75460;BME280;64039;53.060;9.342;2023-08-06T05:39:54;100185.03;;;14.39;100.00
75460;BME280;64039;53.060;9.342;2023-08-06T05:42:20;100183.31;;;14.35;100.00
75460;BME280;64039;53.060;9.342;2023-08-06T05:44:45;100186.78;;;14.40;100.00
75460;BME280;64039;53.060;9.342;2023-08-06T05:47:11;100178.88;;;14.46;100.00
75460;BME280;64039;53.060;9.342;2023-08-06T05:49:36;100184.19;;;14.30;100.00
75460;BME280;64039;53.060;9.342;2023-08-06T05:52:02;100181.56;;;14.34;100.00
75460;BME280;64039;53.060;9.342;2023-08-06T05:54:31;100185.03;;;14.34;100.00
75460;BME280;64039;53.060;9.342;2023-08-06T05:56:56;100182.47;;;14.31;100.00
75460;BME280;64039;53.060;9.342;2023-08-06T05:59:22;100179.88;;;14.15;100.00
75460;BME280;64039;53.060;9.342;2023-08-06T06:01:47;100179.88;;;14.20;100.00
75460;BME280;64039;53.060;9.342;2023-08-06T06:04:13;100185.09;;;14.23;100.00
75460;BME280;64039;53.060;9.342;2023-08-06T06:06:38;100180.69;;;14.28;100.00
75460;BME280;64039;53.060;9.342;2023-08-06T06:09:04;100183.28;;;14.39;100.00
75460;BME280;64039;53.060;9.342;2023-08-06T06:11:30;100185.03;;;14.39;100.00
75460;BME280;64039;53.060;9.342;2023-08-06T06:13:55;100183.28;;;14.41;100.00
75460;BME280;64039;53.060;9.342;2023-08-06T06:16:21;100184.09;;;14.54;100.00
75460;BME280;64039;53.060;9.342;2023-08-06T06:18:46;100183.25;;;14.47;100.00
75460;BME280;64039;53.060;9.342;2023-08-06T06:21:11;100178.00;;;14.44;100.00
75460;BME280;64039;53.060;9.342;2023-08-06T06:23:37;100172.75;;;14.44;100.00
75460;BME280;64039;53.060;9.342;2023-08-06T06:26:02;100183.22;;;14.49;100.00
75460;BME280;64039;53.060;9.342;2023-08-06T06:28:28;100177.94;;;14.61;100.00
75460;BME280;64039;53.060;9.342;2023-08-06T06:30:53;100180.53;;;14.67;100.00
75460;BME280;64039;53.060;9.342;2023-08-06T06:33:24;100184.84;;;14.77;100.00
75460;BME280;64039;53.060;9.342;2023-08-06T06:35:50;100186.66;;;14.69;100.00
75460;BME280;64039;53.060;9.342;2023-08-06T06:38:15;100183.13;;;14.72;100.00
75460;BME280;64039;53.060;9.342;2023-08-06T06:40:41;100170.91;;;14.74;100.00
75460;BME280;64039;53.060;9.342;2023-08-06T06:43:06;100177.88;;;14.73;100.00
75460;BME280;64039;53.060;9.342;2023-08-06T06:45:32;100169.22;;;14.67;100.00
75460;BME280;64039;53.060;9.342;2023-08-06T06:47:57;100180.53;;;14.70;100.00
75460;BME280;64039;53.060;9.342;2023-08-06T06:50:23;100180.56;;;14.61;100.00
75460;BME280;64039;53.060;9.342;2023-08-06T06:52:49;100184.91;;;14.63;100.00
75460;BME280;64039;53.060;9.342;2023-08-06T06:55:14;100185.78;;;14.62;100.00
75460;BME280;64039;53.060;9.342;2023-08-06T06:57:40;100184.03;;;14.72;100.00
75460;BME280;64039;53.060;9.342;2023-08-06T07:00:06;100183.16;;;14.69;100.00
75460;BME280;64039;53.060;9.342;2023-08-06T07:02:31;100181.41;;;14.72;100.00
75460;BME280;64039;53.060;9.342;2023-08-06T07:04:57;100193.66;;;14.61;100.00
75460;BME280;64039;53.060;9.342;2023-08-06T07:07:22;100184.91;;;14.71;100.00
75460;BME280;64039;53.060;9.342;2023-08-06T07:09:48;100189.28;;;14.63;100.00
75460;BME280;64039;53.060;9.342;2023-08-06T07:12:13;100192.84;;;14.51;100.00
75460;BME280;64039;53.060;9.342;2023-08-06T07:14:38;100195.41;;;14.67;100.00
75460;BME280;64039;53.060;9.342;2023-08-06T07:17:04;100185.75;;;14.66;100.00
75460;BME280;64039;53.060;9.342;2023-08-06T07:19:30;100191.84;;;14.77;100.00
75460;BME280;64039;53.060;9.342;2023-08-06T07:21:55;100197.81;;;15.01;100.00
75460;BME280;64039;53.060;9.342;2023-08-06T07:24:21;100192.50;;;15.10;100.00
75460;BME280;64039;53.060;9.342;2023-08-06T07:26:46;100194.34;;;14.97;100.00
75460;BME280;64039;53.060;9.342;2023-08-06T07:29:12;100187.25;;;15.12;100.00
75460;BME280;64039;53.060;9.342;2023-08-06T07:31:37;100186.25;;;15.25;100.00
75460;BME280;64039;53.060;9.342;2023-08-06T07:34:03;100185.41;;;15.21;100.00
75460;BME280;64039;53.060;9.342;2023-08-06T07:36:28;100193.22;;;15.26;100.00
75460;BME280;64039;53.060;9.342;2023-08-06T07:38:54;100184.44;;;15.35;100.00
75460;BME280;64039;53.060;9.342;2023-08-06T07:41:24;100195.66;;;15.52;100.00
75460;BME280;64039;53.060;9.342;2023-08-06T07:43:50;100190.34;;;15.55;100.00
75460;BME280;64039;53.060;9.342;2023-08-06T07:46:16;100186.19;;;15.36;100.00
75460;BME280;64039;53.060;9.342;2023-08-06T07:48:41;100190.41;;;15.49;100.00
75460;BME280;64039;53.060;9.342;2023-08-06T07:51:07;100184.16;;;15.63;100.00
75460;BME280;64039;53.060;9.342;2023-08-06T07:53:32;100182.47;;;15.59;100.00
75460;BME280;64039;53.060;9.342;2023-08-06T07:55:58;100178.91;;;15.66;100.00
75460;BME280;64039;53.060;9.342;2023-08-06T07:58:24;100182.34;;;15.71;100.00
75460;BME280;64039;53.060;9.342;2023-08-06T08:00:50;100183.13;;;15.81;100.00
75460;BME280;64039;53.060;9.342;2023-08-06T08:03:16;100180.47;;;15.84;100.00
75460;BME280;64039;53.060;9.342;2023-08-06T08:05:42;100173.38;;;15.92;100.00
75460;BME280;64039;53.060;9.342;2023-08-06T08:08:08;100168.84;;;16.08;100.00
75460;BME280;64039;53.060;9.342;2023-08-06T08:10:34;100174.06;;;16.10;100.00
75460;BME280;64039;53.060;9.342;2023-08-06T08:13:01;100171.44;;;16.11;100.00
75460;BME280;64039;53.060;9.342;2023-08-06T08:15:30;100174.28;;;15.91;100.00
75460;BME280;64039;53.060;9.342;2023-08-06T08:17:56;100172.56;;;15.88;100.00
75460;BME280;64039;53.060;9.342;2023-08-06T08:20:22;100171.69;;;15.90;100.00
75460;BME280;64039;53.060;9.342;2023-08-06T08:22:48;100174.25;;;15.94;100.00
75460;BME280;64039;53.060;9.342;2023-08-06T08:25:15;100169.88;;;15.93;100.00
75460;BME280;64039;53.060;9.342;2023-08-06T08:27:40;100164.44;;;16.09;100.00
75460;BME280;64039;53.060;9.342;2023-08-06T08:30:06;100169.66;;;16.15;100.00
75460;BME280;64039;53.060;9.342;2023-08-06T08:32:32;100167.81;;;16.20;100.00
75460;BME280;64039;53.060;9.342;2023-08-06T08:34:57;100158.94;;;16.29;100.00
75460;BME280;64039;53.060;9.342;2023-08-06T08:37:23;100159.59;;;16.46;100.00
75460;BME280;64039;53.060;9.342;2023-08-06T08:39:49;100157.94;;;16.41;100.00
75460;BME280;64039;53.060;9.342;2023-08-06T08:42:15;100153.56;;;16.40;100.00
75460;BME280;64039;53.060;9.342;2023-08-06T08:44:44;100157.00;;;16.45;100.00
75460;BME280;64039;53.060;9.342;2023-08-06T08:47:10;100150.84;;;16.46;100.00
75460;BME280;64039;53.060;9.342;2023-08-06T08:49:36;100151.53;;;16.62;100.00
75460;BME280;64039;53.060;9.342;2023-08-06T08:52:03;100151.69;;;16.49;100.00
75460;BME280;64039;53.060;9.342;2023-08-06T08:54:37;100152.94;;;16.21;100.00
75460;BME280;64039;53.060;9.342;2023-08-06T08:57:04;100146.63;;;16.35;100.00
75460;BME280;64039;53.060;9.342;2023-08-06T08:59:29;100144.84;;;16.38;100.00
75460;BME280;64039;53.060;9.342;2023-08-06T09:01:55;100154.28;;;16.51;100.00
75460;BME280;64039;53.060;9.342;2023-08-06T09:04:21;100149.66;;;16.70;100.00
75460;BME280;64039;53.060;9.342;2023-08-06T09:06:50;100142.38;;;16.86;100.00
75460;BME280;64039;53.060;9.342;2023-08-06T09:09:26;100142.78;;;17.18;100.00
75460;BME280;64039;53.060;9.342;2023-08-06T09:11:52;100148.56;;;17.40;100.00
75460;BME280;64039;53.060;9.342;2023-08-06T09:14:19;100141.50;;;17.40;100.00
75460;BME280;64039;53.060;9.342;2023-08-06T09:16:45;100135.13;;;17.55;100.00
75460;BME280;64039;53.060;9.342;2023-08-06T09:19:13;100137.75;;;17.04;100.00
75460;BME280;64039;53.060;9.342;2023-08-06T09:21:41;100134.75;;;17.25;100.00
75460;BME280;64039;53.060;9.342;2023-08-06T09:24:08;100142.19;;;17.50;100.00
75460;BME280;64039;53.060;9.342;2023-08-06T09:26:34;100135.06;;;17.57;100.00
75460;BME280;64039;53.060;9.342;2023-08-06T09:29:00;100137.88;;;17.48;100.00
75460;BME280;64039;53.060;9.342;2023-08-06T09:31:32;100133.94;;;17.23;100.00
75460;BME280;64039;53.060;9.342;2023-08-06T09:34:00;100135.25;;;17.49;100.00
75460;BME280;64039;53.060;9.342;2023-08-06T09:36:27;100137.50;;;17.69;100.00
75460;BME280;64039;53.060;9.342;2023-08-06T09:38:52;100139.38;;;17.63;100.00
75460;BME280;64039;53.060;9.342;2023-08-06T09:41:27;100133.34;;;17.57;100.00
75460;BME280;64039;53.060;9.342;2023-08-06T09:43:53;100133.72;;;17.83;100.00
75460;BME280;64039;53.060;9.342;2023-08-06T09:46:19;100133.38;;;18.01;100.00
75460;BME280;64039;53.060;9.342;2023-08-06T09:48:46;100138.25;;;18.20;100.00
75460;BME280;64039;53.060;9.342;2023-08-06T09:51:13;100128.44;;;18.27;100.00
75460;BME280;64039;53.060;9.342;2023-08-06T09:53:40;100137.72;;;18.45;100.00
75460;BME280;64039;53.060;9.342;2023-08-06T09:56:06;100130.22;;;18.65;100.00
75460;BME280;64039;53.060;9.342;2023-08-06T09:58:32;100126.31;;;18.83;100.00
75460;BME280;64039;53.060;9.342;2023-08-06T10:00:59;100127.56;;;18.67;100.00
75460;BME280;64039;53.060;9.342;2023-08-06T10:03:25;100124.47;;;18.85;100.00
75460;BME280;64039;53.060;9.342;2023-08-06T10:05:53;100129.44;;;18.99;100.00
75460;BME280;64039;53.060;9.342;2023-08-06T10:08:20;100124.00;;;18.68;100.00
75460;BME280;64039;53.060;9.342;2023-08-06T10:10:45;100118.63;;;18.73;100.00
75460;BME280;64039;53.060;9.342;2023-08-06T10:13:12;100115.78;;;18.82;100.00
75460;BME280;64039;53.060;9.342;2023-08-06T10:15:38;100114.75;;;18.88;100.00
75460;BME280;64039;53.060;9.342;2023-08-06T10:18:05;100116.75;;;19.14;100.00
75460;BME280;64039;53.060;9.342;2023-08-06T10:20:34;100109.91;;;19.07;100.00
75460;BME280;64039;53.060;9.342;2023-08-06T10:23:02;100120.03;;;18.88;100.00
75460;BME280;64039;53.060;9.342;2023-08-06T10:25:31;100120.63;;;19.00;100.00
75460;BME280;64039;53.060;9.342;2023-08-06T10:27:57;100115.94;;;18.76;100.00
75460;BME280;64039;53.060;9.342;2023-08-06T10:32:50;100111.09;;;18.96;100.00
75460;BME280;64039;53.060;9.342;2023-08-06T10:35:30;100113.00;;;19.24;100.00
75460;BME280;64039;53.060;9.342;2023-08-06T10:38:19;100114.00;;;19.19;100.00
75460;BME280;64039;53.060;9.342;2023-08-06T10:43:26;100105.00;;;19.60;100.00
75460;BME280;64039;53.060;9.342;2023-08-06T10:45:53;100094.63;;;19.54;100.00
75460;BME280;64039;53.060;9.342;2023-08-06T10:51:00;100090.03;;;19.92;100.00
75460;BME280;64039;53.060;9.342;2023-08-06T10:53:26;100095.25;;;19.95;100.00
75460;BME280;64039;53.060;9.342;2023-08-06T10:55:51;100096.81;;;20.31;100.00
75460;BME280;64039;53.060;9.342;2023-08-06T10:58:17;100094.41;;;19.93;97.66
75460;BME280;64039;53.060;9.342;2023-08-06T11:00:42;100098.56;;;20.02;98.30
75460;BME280;64039;53.060;9.342;2023-08-06T11:03:08;100096.06;;;19.98;98.47
75460;BME280;64039;53.060;9.342;2023-08-06T11:05:34;100100.00;;;20.14;97.25
75460;BME280;64039;53.060;9.342;2023-08-06T11:07:59;100095.63;;;20.13;98.45
75460;BME280;64039;53.060;9.342;2023-08-06T11:10:25;100094.38;;;20.25;98.37
75460;BME280;64039;53.060;9.342;2023-08-06T11:12:51;100091.25;;;20.12;93.07
75460;BME280;64039;53.060;9.342;2023-08-06T11:15:16;100083.72;;;19.98;94.00
75460;BME280;64039;53.060;9.342;2023-08-06T11:17:42;100083.84;;;19.93;94.90
75460;BME280;64039;53.060;9.342;2023-08-06T11:20:08;100090.34;;;20.13;93.03
75460;BME280;64039;53.060;9.342;2023-08-06T11:22:36;100090.06;;;20.22;91.64
75460;BME280;64039;53.060;9.342;2023-08-06T11:25:01;100089.75;;;20.32;87.32
75460;BME280;64039;53.060;9.342;2023-08-06T11:27:27;100084.31;;;20.36;89.05
75460;BME280;64039;53.060;9.342;2023-08-06T11:29:53;100093.13;;;20.65;90.05
75460;BME280;64039;53.060;9.342;2023-08-06T11:32:19;100082.47;;;20.67;84.78
75460;BME280;64039;53.060;9.342;2023-08-06T11:34:44;100082.41;;;20.70;90.89
75460;BME280;64039;53.060;9.342;2023-08-06T11:37:10;100080.34;;;20.51;85.40
75460;BME280;64039;53.060;9.342;2023-08-06T11:39:38;100079.81;;;20.40;82.98
75460;BME280;64039;53.060;9.342;2023-08-06T11:42:06;100077.41;;;20.32;78.68
75460;BME280;64039;53.060;9.342;2023-08-06T11:44:34;100071.25;;;20.32;78.76
75460;BME280;64039;53.060;9.342;2023-08-06T11:47:01;100077.50;;;20.57;83.43
75460;BME280;64039;53.060;9.342;2023-08-06T11:49:47;100075.44;;;20.67;74.46
75460;BME280;64039;53.060;9.342;2023-08-06T11:52:18;100069.56;;;20.57;78.39
75460;BME280;64039;53.060;9.342;2023-08-06T11:55:02;100068.28;;;20.98;78.35
75460;BME280;64039;53.060;9.342;2023-08-06T11:57:30;100057.84;;;20.66;82.53
75460;BME280;64039;53.060;9.342;2023-08-06T12:00:19;100057.28;;;21.10;82.33
75460;BME280;64039;53.060;9.342;2023-08-06T12:02:48;100054.41;;;21.42;78.87
75460;BME280;64039;53.060;9.342;2023-08-06T12:05:18;100054.69;;;21.59;81.10
75460;BME280;64039;53.060;9.342;2023-08-06T12:07:56;100051.00;;;21.38;77.20
75460;BME280;64039;53.060;9.342;2023-08-06T12:10:28;100047.75;;;21.79;80.19
75460;BME280;64039;53.060;9.342;2023-08-06T12:12:54;100050.78;;;21.93;77.44
75460;BME280;64039;53.060;9.342;2023-08-06T12:15:20;100045.16;;;22.01;79.19
75460;BME280;64039;53.060;9.342;2023-08-06T12:17:46;100055.00;;;21.50;79.43
75460;BME280;64039;53.060;9.342;2023-08-06T12:20:12;100039.41;;;21.17;77.38
75460;BME280;64039;53.060;9.342;2023-08-06T12:22:38;100040.94;;;20.70;78.75
75460;BME280;64039;53.060;9.342;2023-08-06T12:25:05;100037.50;;;20.95;81.74
75460;BME280;64039;53.060;9.342;2023-08-06T12:27:36;100032.28;;;21.19;75.68
75460;BME280;64039;53.060;9.342;2023-08-06T12:30:02;100031.47;;;21.66;77.96
75460;BME280;64039;53.060;9.342;2023-08-06T12:32:29;100029.81;;;21.63;78.48
75460;BME280;64039;53.060;9.342;2023-08-06T12:34:55;100027.94;;;21.16;78.57
75460;BME280;64039;53.060;9.342;2023-08-06T12:37:20;100030.50;;;21.19;78.24
75460;BME280;64039;53.060;9.342;2023-08-06T12:39:46;100029.72;;;21.16;79.09
75460;BME280;64039;53.060;9.342;2023-08-06T12:42:11;100033.28;;;21.40;80.63
75460;BME280;64039;53.060;9.342;2023-08-06T12:44:37;100034.47;;;21.57;76.53
75460;BME280;64039;53.060;9.342;2023-08-06T12:47:02;100037.75;;;21.87;75.75